Pittsburgh, PA (15212)

6:34 AM EST on February 11, 2016 (GMT -0500)
Perry South | | Change Station
CLOSE
Current Station
Personal Weather Station
Location: Pittsburgh, PA
Elevation: 1037 ft
Nearby Weather Stations

Elev 1037 ft 40.46 °N, 80.01 °W | Updated 14 minutes ago

Snow
Snow
12.6 °F
Feels Like 1 °F
N
8.3
Wind Variable Wind from WNW

Today
High -- | Low -- °F
--% Chance of Precip.
Yesterday
High -- | Low -- °F
Precip. -- in
Pressure 30.06 in
Visibility 4.0 miles
Clouds Scattered Clouds 2500 ft
Mostly Cloudy 3800 ft
Overcast 6000 ft
Windchill 1 °F
Dew Point 8 °F
Humidity 80%
Rainfall 0.00 in
Snow Depth Not available.
7:19 AM 5:49 PM
Waxing Crescent, 11% visible
METAR KAGC 111053Z AUTO 26016G20KT 4SM -SN SCT025 BKN038 OVC060 M11/M14 A2998 RMK AO2 SNB50 SLP179 P0000 T11061144 TSNO
Pressure 30.06 in
Visibility 4.0 miles
Clouds Scattered Clouds 2500 ft
Mostly Cloudy 3800 ft
Overcast 6000 ft
Windchill 1 °F
Dew Point 8 °F
Humidity 80%
Rainfall 0.00 in
Snow Depth Not available.
7:19 AM 5:49 PM
Waxing Crescent, 11% visible
METAR KAGC 111053Z AUTO 26016G20KT 4SM -SN SCT025 BKN038 OVC060 M11/M14 A2998 RMK AO2 SNB50 SLP179 P0000 T11061144 TSNO

10-Day Weather Forecast

Almanac

Astronomy

Feb. 11, 2016 Rise Set
Actual Time
Civil Twilight
Nautical Twilight
Astronomical Twilight
Moon
Length of Visible Light
Length of Day
Tomorrow will be .
, % of the Moon is Illuminated

Today's Extremes

State Highs State Lows

Community

WunderPhotos

Upload Photos

1,892,030 photos uploaded!

WunderBlog® & News

Nearby

Air Quality

  Air Quality AQ Index Pollutant
Not available.

Snow Depth

Station Depth Elevation

Earthquake Activity

City Distance Mag. Time & Date
Minimum magnitude displayed is 2.5.

Coastal Water Temperatures

Place Temperature

Stations

Nearby Weather Stations

Station Location Temp. Windchill Dew Point Humidity Wind Precip. Elev Updated Type
                   

Watches & Warnings

There are currently no watches in effect.